Time;durP1;ratioP1;P1;durP2;ratioP2;P2;SDS_P1;SDS_P2;PMS_P1;PMS_P2;Temp;Humidity;BMP_temperature;BMP_pressure;BME280_temperature;BME280_humidity;BME280_pressure;Samples;Min_cycle;Max_cycle;Signal;HPM_P1;HPM_P2
2022/05/22 00:02:10;;;;;;;5.18;2.28;;;;;;;15.87;61.50;101322.25;5111572;27;20043;-71
2022/05/22 00:04:37;;;;;;;5.32;1.98;;;;;;;15.82;61.79;101323.47;5111223;27;20065;-71
2022/05/22 00:07:05;;;;;;;5.00;1.65;;;;;;;16.13;60.94;101309.13;5105717;27;20039;-71
2022/05/22 00:09:32;;;;;;;5.53;1.67;;;;;;;16.33;60.10;101311.31;5105709;27;20363;-71
2022/05/22 00:11:58;;;;;;;4.78;2.17;;;;;;;16.55;59.25;101314.22;5104140;28;20048;-71
2022/05/22 00:14:26;;;;;;;9.23;1.80;;;;;;;16.47;60.15;101312.09;5110778;28;20039;-71
2022/05/22 00:16:53;;;;;;;6.53;1.95;;;;;;;16.66;59.57;101308.22;5128021;27;20107;-71
2022/05/22 00:19:22;;;;;;;5.22;1.90;;;;;;;16.80;59.06;101313.44;5117232;27;20484;-71
2022/05/22 00:21:49;;;;;;;6.65;1.80;;;;;;;16.69;59.78;101311.50;5110860;28;21647;-71
2022/05/22 00:24:17;;;;;;;3.60;1.70;;;;;;;16.33;61.55;101309.47;5110846;28;20074;-71
2022/05/22 00:26:43;;;;;;;6.60;2.00;;;;;;;16.41;61.06;101308.97;5111233;28;20108;-71
2022/05/22 00:29:10;;;;;;;10.35;2.42;;;;;;;16.49;60.41;101312.81;5109705;28;20044;-71
2022/05/22 00:31:38;;;;;;;6.10;1.88;;;;;;;16.38;61.25;101309.19;5110675;27;20048;-71
2022/05/22 00:34:04;;;;;;;6.32;2.20;;;;;;;16.42;61.20;101310.69;5110786;27;20040;-71
2022/05/22 00:36:31;;;;;;;5.95;2.05;;;;;;;16.57;60.48;101319.41;5110386;27;20047;-71
2022/05/22 00:38:58;;;;;;;6.53;1.90;;;;;;;16.48;60.87;101319.06;5110218;27;20051;-71
2022/05/22 00:41:24;;;;;;;7.90;2.20;;;;;;;16.41;61.45;101319.56;5110693;27;20051;-71
2022/05/22 00:43:53;;;;;;;6.38;3.25;;;;;;;16.12;62.44;101321.50;5110452;27;20043;-71
2022/05/22 00:46:21;;;;;;;6.68;2.30;;;;;;;15.89;63.63;101316.88;5109621;27;20136;-71
2022/05/22 00:48:53;;;;;;;6.72;2.05;;;;;;;15.65;63.97;101313.13;5108969;27;20055;-71
2022/05/22 00:51:24;;;;;;;7.10;1.90;;;;;;;15.28;65.04;101320.72;5110063;27;20113;-71
2022/05/22 00:53:54;;;;;;;6.10;2.42;;;;;;;15.62;64.00;101323.91;5110208;27;20463;-71
2022/05/22 00:56:27;;;;;;;6.03;2.53;;;;;;;15.57;64.37;101325.03;5108941;28;20048;-71
2022/05/22 00:58:57;;;;;;;4.38;2.35;;;;;;;15.53;64.42;101333.25;5109958;27;20050;-71
2022/05/22 01:01:23;;;;;;;3.70;1.90;;;;;;;15.33;64.69;101326.56;5104658;27;20048;-71
2022/05/22 01:03:51;;;;;;;14.00;2.80;;;;;;;15.36;64.36;101334.28;5109295;27;20116;-71
2022/05/22 01:06:24;;;;;;;7.25;2.38;;;;;;;15.41;63.97;101332.19;5109422;27;20048;-71
2022/05/22 01:08:50;;;;;;;;;;;;;;;15.18;64.05;101334.56;5108956;28;20249;-71
2022/05/22 01:11:21;;;;;;;7.25;2.40;;;;;;;15.10;64.57;101327.97;5109812;27;19957;-71
2022/05/22 01:13:52;;;;;;;5.50;2.20;;;;;;;15.02;64.49;101335.50;5105321;27;20491;-71
2022/05/22 01:16:19;;;;;;;6.03;2.50;;;;;;;15.06;63.82;101333.53;5108829;27;20051;-70
2022/05/22 01:18:48;;;;;;;4.57;2.35;;;;;;;15.04;64.35;101332.75;5109149;27;20426;-70
2022/05/22 01:21:19;;;;;;;4.50;2.15;;;;;;;14.96;64.67;101335.03;5108962;27;20066;-70
2022/05/22 01:23:47;;;;;;;3.13;2.00;;;;;;;14.77;64.90;101335.28;5109301;27;20047;-70
2022/05/22 01:26:14;;;;;;;5.65;1.90;;;;;;;14.56;65.54;101337.38;5109121;27;20100;-70
2022/05/22 01:28:41;;;;;;;10.10;2.28;;;;;;;14.49;65.64;101335.19;5108420;27;20040;-70
2022/05/22 01:31:08;;;;;;;4.30;2.20;;;;;;;14.21;67.24;101335.94;5109249;27;20517;-70
2022/05/22 01:33:35;;;;;;;7.35;2.40;;;;;;;14.15;67.74;101331.00;5108924;27;20101;-70
2022/05/22 01:36:02;;;;;;;5.97;2.58;;;;;;;14.14;68.02;101335.44;5108096;27;20046;-70
2022/05/22 01:38:28;;;;;;;5.60;2.55;;;;;;;14.38;67.35;101329.69;5105230;27;20063;-71
2022/05/22 01:40:56;;;;;;;4.93;2.17;;;;;;;14.32;66.90;101327.38;5108561;27;20119;-71
2022/05/22 01:43:23;;;;;;;6.78;2.30;;;;;;;13.89;68.48;101324.56;5107394;28;20559;-70
2022/05/22 01:45:50;;;;;;;6.85;2.50;;;;;;;14.26;67.69;101325.97;5100224;27;20051;-70
2022/05/22 01:48:16;;;;;;;10.55;2.40;;;;;;;14.29;68.03;101317.03;5108907;28;20059;-71
2022/05/22 01:50:45;;;;;;;7.50;2.40;;;;;;;14.19;68.30;101318.50;5107811;28;20039;-70
2022/05/22 01:53:12;;;;;;;6.72;2.70;;;;;;;13.85;68.76;101322.19;5109081;28;20040;-71
2022/05/22 01:55:39;;;;;;;5.75;2.78;;;;;;;13.45;70.71;101315.63;5108946;28;20043;-70
2022/05/22 01:58:07;;;;;;;7.22;2.33;;;;;;;13.32;70.98;101325.13;5108691;28;20071;-70
2022/05/22 02:00:34;;;;;;;7.82;2.53;;;;;;;13.40;70.82;101320.28;5108930;27;20085;-70
2022/05/22 02:03:01;;;;;;;6.55;2.50;;;;;;;13.48;70.47;101323.38;5112684;27;20484;-70
2022/05/22 02:05:28;;;;;;;4.97;2.88;;;;;;;13.64;69.49;101317.16;5112069;27;20067;-71
2022/05/22 02:10:40;;;;;;;9.10;3.50;;;;;;;13.35;70.25;101323.16;5104932;27;20050;-73
2022/05/22 02:13:08;;;;;;;7.10;3.13;;;;;;;13.37;70.39;101317.84;5091537;28;20097;-70
2022/05/22 02:15:35;;;;;;;8.48;3.67;;;;;;;13.54;69.48;101323.03;5110002;27;20160;-71
2022/05/22 02:18:01;;;;;;;7.35;3.40;;;;;;;13.47;69.33;101317.25;5111243;27;20120;-71
2022/05/22 02:20:27;;;;;;;6.18;3.38;;;;;;;13.46;68.99;101322.59;5111751;27;20071;-70
2022/05/22 02:22:56;;;;;;;5.97;2.92;;;;;;;13.52;69.06;101312.59;5099137;27;20133;-70
2022/05/22 02:25:25;;;;;;;7.47;3.13;;;;;;;13.45;68.76;101319.09;5094043;28;20097;-70
2022/05/22 02:27:52;;;;;;;7.30;3.03;;;;;;;13.48;68.03;101324.22;5106781;27;20873;-70
2022/05/22 02:30:23;;;;;;;8.00;2.60;;;;;;;13.58;67.62;101322.78;5105869;27;20065;-70
2022/05/22 02:32:49;;;;;;;7.38;2.83;;;;;;;13.75;67.07;101313.06;5111369;27;20063;-70
2022/05/22 02:35:16;;;;;;;7.65;3.00;;;;;;;13.62;67.09;101311.13;5111474;27;20104;-70
2022/05/22 02:37:44;;;;;;;7.22;2.58;;;;;;;13.58;67.08;101309.59;5110267;27;20047;-70
2022/05/22 02:40:12;;;;;;;6.78;2.65;;;;;;;13.69;66.88;101300.25;5110745;27;20043;-70
2022/05/22 02:42:41;;;;;;;6.65;2.50;;;;;;;13.66;66.67;101301.28;5111177;27;20043;-70
2022/05/22 02:45:10;;;;;;;7.82;2.83;;;;;;;13.32;66.78;101312.81;5111520;27;20043;-70
2022/05/22 02:47:38;;;;;;;9.13;3.22;;;;;;;13.13;68.49;101306.81;5110048;28;20113;-70
2022/05/22 02:50:06;;;;;;;5.85;2.70;;;;;;;13.27;68.82;101303.44;5109927;27;20043;-70
2022/05/22 02:52:33;;;;;;;9.93;3.17;;;;;;;13.25;68.30;101308.81;5109653;27;20419;-70
2022/05/22 02:54:59;;;;;;;7.25;2.90;;;;;;;13.13;68.79;101302.41;5111264;27;20096;-70
2022/05/22 02:57:26;;;;;;;13.00;3.00;;;;;;;13.15;69.00;101311.06;5111505;27;20043;-70
2022/05/22 02:59:54;;;;;;;12.20;3.00;;;;;;;13.32;68.45;101301.41;5108057;27;20119;-71
2022/05/22 03:02:20;;;;;;;5.35;2.70;;;;;;;12.93;68.35;101305.22;5101124;27;20091;-70
2022/05/22 03:04:48;;;;;;;10.55;2.85;;;;;;;12.58;70.56;101301.78;5110305;27;20107;-70
2022/05/22 03:07:16;;;;;;;6.30;2.72;;;;;;;12.55;71.87;101303.72;5110511;27;20050;-70
2022/05/22 03:09:45;;;;;;;12.25;3.17;;;;;;;12.32;72.59;101312.75;5110414;27;20564;-70
2022/05/22 03:12:14;;;;;;;7.65;2.95;;;;;;;12.56;71.98;101310.69;5109974;27;20047;-70
2022/05/22 03:14:42;;;;;;;8.57;3.00;;;;;;;12.58;71.20;101314.06;5109591;27;20051;-70
2022/05/22 03:17:08;;;;;;;8.13;3.00;;;;;;;12.54;71.28;101313.38;5109884;27;20063;-70
2022/05/22 03:19:35;;;;;;;5.93;2.88;;;;;;;12.43;71.90;101313.06;5107385;27;20040;-70
2022/05/22 03:22:03;;;;;;;5.75;2.90;;;;;;;12.53;71.83;101313.44;5107537;27;20088;-70
2022/05/22 03:24:29;;;;;;;10.10;3.25;;;;;;;12.49;71.67;101315.38;5111991;27;20075;-70
2022/05/22 03:26:56;;;;;;;10.57;3.60;;;;;;;12.52;71.40;101312.63;5101939;27;20097;-70
2022/05/22 03:29:22;;;;;;;7.43;2.97;;;;;;;12.61;70.83;101314.75;5104014;28;20047;-70
2022/05/22 03:31:48;;;;;;;7.82;3.08;;;;;;;12.48;71.25;101311.06;5098765;27;20071;-70
2022/05/22 03:34:15;;;;;;;7.63;2.90;;;;;;;12.55;71.35;101309.81;5102420;27;20088;-70
2022/05/22 03:36:41;;;;;;;6.82;3.55;;;;;;;12.87;69.92;101313.41;5109219;27;20100;-70
2022/05/22 03:39:09;;;;;;;9.38;2.60;;;;;;;13.11;68.87;101320.09;5109707;27;20044;-70
2022/05/22 03:41:36;;;;;;;7.10;2.83;;;;;;;12.88;69.92;101316.91;5109021;27;20039;-70
2022/05/22 03:44:02;;;;;;;5.45;2.60;;;;;;;13.01;70.26;101324.06;5101025;28;20168;-70
2022/05/22 03:46:29;;;;;;;4.88;2.35;;;;;;;13.20;69.99;101320.50;5090053;28;20051;-70
2022/05/22 03:48:55;;;;;;;8.40;2.80;;;;;;;13.45;69.29;101324.38;5089376;28;20044;-70
2022/05/22 03:51:22;;;;;;;8.05;2.60;;;;;;;13.87;67.91;101315.03;5106873;28;20040;-71
2022/05/22 03:53:48;;;;;;;6.18;2.50;;;;;;;14.13;66.95;101309.13;5102240;27;20075;-70
2022/05/22 03:56:17;;;;;;;4.85;2.10;;;;;;;14.49;65.87;101314.94;5098150;28;20044;-70
2022/05/22 03:58:44;;;;;;;7.80;2.38;;;;;;;14.09;67.96;101311.09;5109364;28;20060;-71
2022/05/22 04:01:11;;;;;;;6.25;2.40;;;;;;;14.32;66.76;101316.84;5109551;27;20051;-71
2022/05/22 04:03:37;;;;;;;5.50;2.17;;;;;;;14.28;67.37;101328.50;5109831;27;20092;-71
2022/05/22 04:06:06;;;;;;;7.53;2.40;;;;;;;14.43;67.05;101323.22;5109877;27;20483;-71
2022/05/22 04:08:33;;;;;;;7.05;2.28;;;;;;;14.03;68.30;101336.97;5108632;27;20044;-71
2022/05/22 04:11:06;;;;;;;7.50;2.65;;;;;;;14.27;68.36;101334.72;5109349;27;20461;-71
2022/05/22 04:13:34;;;;;;;6.45;2.13;;;;;;;14.44;68.15;101346.03;5109216;27;20479;-71
2022/05/22 04:16:00;;;;;;;6.95;2.78;;;;;;;14.61;67.51;101340.63;5109948;27;20487;-71
2022/05/22 04:18:27;;;;;;;6.55;1.85;;;;;;;14.60;67.48;101340.69;5109754;27;20048;-71
2022/05/22 04:20:54;;;;;;;5.63;2.20;;;;;;;14.56;67.36;101345.31;5108550;28;20040;-71
2022/05/22 04:26:06;;;;;;;8.45;2.25;;;;;;;14.99;65.87;101340.13;5109243;28;20518;-71
2022/05/22 04:28:34;;;;;;;7.15;2.28;;;;;;;15.19;65.19;101346.84;5109321;28;20171;-71
2022/05/22 04:31:02;;;;;;;8.20;2.45;;;;;;;14.98;65.64;101344.56;5108263;27;20681;-71
2022/05/22 04:33:28;;;;;;;7.38;2.40;;;;;;;15.14;65.50;101339.19;5109592;27;20070;-70
2022/05/22 04:35:54;;;;;;;6.32;2.00;;;;;;;15.29;64.89;101338.25;5108782;27;20097;-70
2022/05/22 04:38:21;;;;;;;5.18;1.80;;;;;;;15.02;65.18;101335.50;5109108;28;20047;-71
2022/05/22 04:40:55;;;;;;;5.43;1.88;;;;;;;15.41;64.38;101336.66;5108987;28;20056;-71
2022/05/22 04:43:21;;;;;;;7.30;2.20;;;;;;;15.71;63.47;101318.88;5105501;27;20055;-71
2022/05/22 04:45:50;;;;;;;9.05;2.60;;;;;;;16.01;62.11;101314.25;5088876;28;20040;-71
2022/05/22 04:48:16;;;;;;;6.07;1.65;;;;;;;15.66;63.67;101325.41;5089096;28;20105;-71
2022/05/22 04:50:45;;;;;;;18.30;2.58;;;;;;;15.87;62.78;101324.03;5093141;28;20113;-71
2022/05/22 04:53:11;;;;;;;7.60;1.80;;;;;;;15.88;62.70;101325.75;5106787;28;20108;-71
2022/05/22 04:55:38;;;;;;;5.47;2.00;;;;;;;15.78;62.48;101324.66;5109406;28;20067;-71
2022/05/22 04:58:05;;;;;;;6.18;1.90;;;;;;;15.82;62.06;101323.47;5109089;28;20406;-71
2022/05/22 05:00:31;;;;;;;8.05;2.33;;;;;;;15.62;62.29;101326.56;5107695;27;20044;-71
2022/05/22 05:02:59;;;;;;;4.70;1.73;;;;;;;15.77;62.10;101328.22;5109452;27;20097;-71
2022/05/22 05:05:26;;;;;;;5.03;2.13;;;;;;;15.84;61.53;101330.38;5107560;27;20043;-71
2022/05/22 05:07:52;;;;;;;7.40;2.72;;;;;;;16.13;60.92;101325.00;5109135;28;20484;-71
2022/05/22 05:10:19;;;;;;;8.13;2.42;;;;;;;16.13;61.59;101320.56;5108427;28;20040;-70
2022/05/22 05:12:45;;;;;;;10.20;2.72;;;;;;;16.28;60.22;101324.84;5108750;27;20066;-70
2022/05/22 05:15:14;;;;;;;5.28;2.33;;;;;;;16.71;59.23;101332.56;5108404;27;20714;-71
2022/05/22 05:17:42;;;;;;;9.23;2.67;;;;;;;16.38;59.75;101325.91;5108822;28;20105;-71
2022/05/22 05:20:11;;;;;;;4.18;2.10;;;;;;;16.35;60.48;101326.13;5107310;28;20462;-70
2022/05/22 05:22:38;;;;;;;9.52;2.20;;;;;;;16.80;59.70;101318.72;5108788;28;20445;-70
2022/05/22 05:25:06;;;;;;;5.55;2.38;;;;;;;16.81;59.23;101323.94;5108495;28;20051;-70
2022/05/22 05:27:32;;;;;;;5.88;2.08;;;;;;;16.85;59.99;101324.56;5108775;28;20084;-70
2022/05/22 05:29:59;;;;;;;5.85;2.10;;;;;;;17.48;58.39;101320.03;5106159;28;20039;-71
2022/05/22 05:32:25;;;;;;;8.13;2.70;;;;;;;17.78;56.61;101314.38;5104833;27;20048;-71
2022/05/22 05:34:56;;;;;;;7.30;2.83;;;;;;;17.65;57.38;101326.00;5108900;27;20051;-71
2022/05/22 05:37:24;;;;;;;9.70;3.28;;;;;;;18.00;56.13;101311.00;5112422;27;20044;-71
2022/05/22 05:39:51;;;;;;;6.47;2.70;;;;;;;18.58;54.19;101312.84;5112007;27;20128;-71
2022/05/22 05:42:19;;;;;;;7.47;2.92;;;;;;;18.61;54.19;101307.31;5112179;27;20063;-71
2022/05/22 05:44:46;;;;;;;9.18;2.63;;;;;;;18.78;54.14;101309.50;5112538;27;20089;-71
2022/05/22 05:47:12;;;;;;;7.55;3.05;;;;;;;19.27;52.03;101314.50;5111475;27;20043;-71
2022/05/22 05:49:39;;;;;;;8.13;3.17;;;;;;;19.62;50.33;101316.22;5111630;28;20047;-71
2022/05/22 05:52:06;;;;;;;8.90;3.50;;;;;;;20.21;48.15;101303.34;5112273;27;20043;-71
2022/05/22 05:54:34;;;;;;;13.27;3.35;;;;;;;19.81;50.19;101311.06;5112055;27;20502;-71
2022/05/22 05:57:01;;;;;;;5.57;2.90;;;;;;;19.37;51.13;101317.28;5112686;28;20096;-70
2022/05/22 05:59:28;;;;;;;6.20;3.25;;;;;;;19.78;50.21;101306.00;5111669;27;20100;-71
2022/05/22 06:01:55;;;;;;;7.65;3.03;;;;;;;19.63;51.46;101307.25;5100339;27;20207;-71
2022/05/22 06:04:21;;;;;;;6.90;3.45;;;;;;;19.77;50.50;101305.16;5112283;27;20067;-71
2022/05/22 06:06:48;;;;;;;8.82;3.17;;;;;;;19.91;49.20;101312.03;5111875;28;20115;-71
2022/05/22 06:09:14;;;;;;;6.43;2.80;;;;;;;20.06;49.39;101305.47;5111345;28;20043;-71
2022/05/22 06:11:42;;;;;;;5.30;2.35;;;;;;;20.11;48.58;101302.41;5107486;27;20044;-71
2022/05/22 06:14:08;;;;;;;9.48;2.65;;;;;;;19.98;48.59;101296.41;5111065;27;20048;-71
2022/05/22 06:16:35;;;;;;;7.93;3.00;;;;;;;20.31;47.29;101293.66;5110204;27;20044;-71
2022/05/22 06:19:01;;;;;;;6.53;2.53;;;;;;;20.42;46.79;101298.06;5112045;27;20092;-71
2022/05/22 06:21:27;;;;;;;6.78;2.10;;;;;;;20.68;47.18;101305.56;5110087;27;20044;-71
2022/05/22 06:23:54;;;;;;;5.20;2.30;;;;;;;20.51;47.75;101305.31;5105997;28;20052;-71
2022/05/22 06:26:20;;;;;;;7.00;2.50;;;;;;;20.60;46.16;101302.69;5107338;27;20055;-71
2022/05/22 06:28:48;;;;;;;6.72;2.95;;;;;;;20.64;47.20;101312.13;5109601;27;20036;-71
2022/05/22 06:31:15;;;;;;;7.10;2.40;;;;;;;20.84;44.25;101311.25;5108425;27;20104;-71
2022/05/22 06:33:42;;;;;;;5.75;2.10;;;;;;;21.42;43.75;101298.25;5111160;27;20067;-71
2022/05/22 06:36:09;;;;;;;9.45;2.00;;;;;;;20.75;44.64;101305.88;5110670;27;20112;-71
2022/05/22 06:41:20;;;;;;;9.63;1.40;;;;;;;20.37;44.46;101304.63;5111319;27;20632;-71
2022/05/22 06:43:49;;;;;;;4.22;1.50;;;;;;;21.02;45.85;101311.53;5110640;27;20401;-71
2022/05/22 06:46:17;;;;;;;4.50;1.15;;;;;;;21.03;44.98;101305.19;5107161;28;20483;-71
2022/05/22 06:48:43;;;;;;;7.40;1.48;;;;;;;21.56;43.07;101295.19;5107905;28;20705;-71
2022/05/22 06:51:09;;;;;;;4.43;1.58;;;;;;;20.89;44.20;101302.88;5110441;28;20061;-71
2022/05/22 06:53:35;;;;;;;4.80;1.40;;;;;;;21.82;41.72;101290.19;5109866;27;20039;-71
2022/05/22 06:56:02;;;;;;;5.03;1.48;;;;;;;21.41;44.78;101306.38;5111207;27;20047;-71
2022/05/22 06:58:28;;;;;;;4.82;1.30;;;;;;;22.08;41.84;101299.38;5108140;27;20040;-71
2022/05/22 07:00:56;;;;;;;2.80;1.30;;;;;;;21.92;41.39;101304.41;5108027;27;20556;-71
2022/05/22 07:03:22;;;;;;;6.35;1.27;;;;;;;21.34;43.08;101304.25;5108997;27;20079;-71
2022/05/22 07:05:49;;;;;;;7.75;1.35;;;;;;;21.24;42.86;101299.88;5101530;28;20044;-71
2022/05/22 07:08:15;;;;;;;7.10;1.50;;;;;;;21.00;45.25;101296.59;5090157;28;20094;-71
2022/05/22 07:13:25;;;;;;;5.38;1.55;;;;;;;21.65;41.76;101293.53;5107430;27;20050;-71
2022/05/22 07:15:59;;;;;;;4.90;1.50;;;;;;;21.98;41.66;101284.34;5110694;27;20051;-71
2022/05/22 07:18:25;;;;;;;8.27;1.80;;;;;;;21.91;44.49;101297.41;5110713;27;20509;-71
2022/05/22 07:20:51;;;;;;;5.47;1.33;;;;;;;21.23;44.34;101298.16;5106112;27;20040;-71
2022/05/22 07:23:18;;;;;;;8.75;1.50;;;;;;;21.18;46.44;101295.03;5109827;28;20100;-71
2022/05/22 07:25:44;;;;;;;5.22;1.63;;;;;;;21.05;45.31;101286.41;5110470;27;20043;-71
2022/05/22 07:28:10;;;;;;;4.03;1.33;;;;;;;21.32;43.15;101276.84;5109983;27;20044;-71
2022/05/22 07:30:37;;;;;;;6.25;1.60;;;;;;;21.52;45.11;101276.91;5104337;27;20423;-71
2022/05/22 07:33:05;;;;;;;3.95;1.23;;;;;;;22.27;44.37;101270.00;5110323;27;20036;-71
2022/05/22 07:35:31;;;;;;;8.07;1.35;;;;;;;22.28;41.90;101273.53;5107524;27;20063;-72
2022/05/22 07:37:58;;;;;;;4.93;1.42;;;;;;;21.72;42.77;101276.00;5090106;28;20044;-71
2022/05/22 07:40:24;;;;;;;6.22;1.60;;;;;;;22.32;42.77;101274.91;5094760;28;20050;-71
2022/05/22 07:42:52;;;;;;;6.18;1.50;;;;;;;22.50;43.27;101275.06;5109950;27;20043;-71
2022/05/22 07:45:18;;;;;;;5.20;1.73;;;;;;;22.89;39.67;101265.97;5102098;27;20048;-71
2022/05/22 07:47:45;;;;;;;3.58;1.10;;;;;;;22.02;41.08;101265.25;5107547;28;20040;-71
2022/05/22 07:50:20;;;;;;;8.05;1.60;;;;;;;22.67;42.44;101260.94;5106617;27;20043;-71
2022/05/22 07:52:48;;;;;;;6.10;1.20;;;;;;;22.84;42.79;101262.88;5105775;28;20048;-71
2022/05/22 07:55:17;;;;;;;6.18;1.25;;;;;;;22.90;44.20;101267.66;5109514;28;20044;-70
2022/05/22 07:57:44;;;;;;;5.05;1.30;;;;;;;22.72;42.28;101272.94;5103968;27;20200;-70
2022/05/22 08:00:13;;;;;;;5.22;1.52;;;;;;;22.24;45.10;101272.13;5108210;28;20074;-70
2022/05/22 08:02:39;;;;;;;5.05;1.05;;;;;;;22.32;42.28;101278.44;5103257;27;20044;-70
2022/05/22 08:05:08;;;;;;;3.20;1.15;;;;;;;22.10;43.97;101273.38;5109147;27;20097;-70
2022/05/22 08:07:36;;;;;;;3.80;1.05;;;;;;;21.62;41.52;101259.09;5109435;27;20418;-70
2022/05/22 08:10:03;;;;;;;4.68;1.20;;;;;;;22.44;40.55;101262.25;5090668;28;21257;-71
2022/05/22 08:12:29;;;;;;;6.05;1.23;;;;;;;22.51;38.54;101268.69;5106659;27;20044;-70
2022/05/22 08:14:55;;;;;;;4.32;1.02;;;;;;;22.64;40.33;101258.56;5108626;27;20093;-72
2022/05/22 08:17:22;;;;;;;4.07;1.30;;;;;;;23.02;42.33;101266.47;5108894;27;20051;-71
2022/05/22 08:19:49;;;;;;;5.03;1.40;;;;;;;23.36;40.49;101261.41;5105434;27;20054;-71
2022/05/22 08:22:16;;;;;;;4.13;1.13;;;;;;;24.52;37.59;101256.06;5098327;28;20092;-71
2022/05/22 08:24:44;;;;;;;4.47;1.42;;;;;;;23.97;38.89;101258.09;5107473;28;20531;-71
2022/05/22 08:27:10;;;;;;;4.90;1.42;;;;;;;24.42;40.75;101255.31;5094349;28;20040;-71
2022/05/22 08:29:37;;;;;;;3.15;1.10;;;;;;;24.38;39.89;101249.44;5107030;28;20424;-71
2022/05/22 08:32:04;;;;;;;4.55;1.33;;;;;;;23.84;35.08;101241.53;5107453;27;20044;-71
2022/05/22 08:34:30;;;;;;;3.83;1.25;;;;;;;24.31;36.55;101240.34;5109755;28;20416;-72
2022/05/22 08:36:57;;;;;;;5.75;1.40;;;;;;;24.64;39.67;101246.78;5107902;28;20071;-72
2022/05/22 08:39:23;;;;;;;4.32;1.10;;;;;;;25.18;34.51;101240.22;5108491;28;20109;-71
2022/05/22 08:41:54;;;;;;;3.92;1.23;;;;;;;25.01;35.97;101250.03;5108146;27;20043;-72
2022/05/22 08:44:23;;;;;;;6.03;1.53;;;;;;;24.68;36.85;101250.81;5108756;27;20487;-71
2022/05/22 08:46:58;;;;;;;5.28;1.20;;;;;;;24.18;36.13;101256.81;5109228;27;20039;-71
2022/05/22 08:49:31;;;;;;;2.95;1.17;;;;;;;23.90;39.05;101249.81;5108279;27;20059;-71
2022/05/22 08:52:04;;;;;;;2.67;1.08;;;;;;;24.05;36.14;101245.63;5108625;28;20073;-71
2022/05/22 08:54:34;;;;;;;5.13;1.33;;;;;;;24.73;37.66;101251.16;5104857;28;20060;-71
2022/05/22 08:59:55;;;;;;;5.55;1.30;;;;;;;24.71;35.27;101256.72;5097254;28;20051;-74
2022/05/22 09:02:33;;;;;;;6.80;1.33;;;;;;;24.97;33.76;101251.34;5108878;27;20119;-74
2022/05/22 09:05:03;;;;;;;3.70;1.30;;;;;;;24.31;35.35;101253.75;5088181;28;20094;-74
2022/05/22 09:07:36;;;;;;;6.40;1.35;;;;;;;23.45;37.54;101255.19;5088747;28;20066;-74
2022/05/22 09:10:08;;;;;;;5.63;1.50;;;;;;;23.36;37.77;101256.03;5088048;28;20468;-73
2022/05/22 09:12:45;;;;;;;;;;;;;;;23.17;37.88;101251.63;5106624;27;20047;-72
2022/05/22 09:15:16;;;;;;;6.65;1.30;;;;;;;22.33;39.92;101261.41;5113071;27;19920;-73
2022/05/22 09:17:51;;;;;;;6.35;1.70;;;;;;;23.02;42.56;101252.28;5109071;27;20071;-73
2022/05/22 09:20:22;;;;;;;6.28;1.35;;;;;;;23.28;43.54;101251.44;5110513;27;20112;-73
2022/05/22 09:23:04;;;;;;;2.78;1.17;;;;;;;23.27;40.86;101259.63;5112767;27;20065;-73
2022/05/22 09:25:39;;;;;;;7.93;1.52;;;;;;;22.92;40.47;101254.97;5112367;28;20124;-73
2022/05/22 09:28:23;;;;;;;6.07;1.33;;;;;;;22.32;40.27;101262.41;5112625;27;20457;-73
2022/05/22 09:30:58;;;;;;;8.88;1.67;;;;;;;22.09;41.75;101260.19;5111628;27;20061;-73
2022/05/22 09:33:33;;;;;;;3.90;1.48;;;;;;;22.67;41.33;101251.13;5111618;27;20060;-74
2022/05/22 09:36:12;;;;;;;11.70;1.60;;;;;;;23.44;43.38;101248.16;5110114;27;20500;-73
2022/05/22 09:39:00;;;;;;;3.65;0.95;;;;;;;23.27;37.69;101256.97;5111285;27;20044;-71
2022/05/22 09:41:40;;;;;;;3.53;1.20;;;;;;;23.64;40.35;101254.25;5110774;27;20055;-71
2022/05/22 09:44:29;;;;;;;3.15;1.10;;;;;;;23.27;37.74;101249.78;5111375;27;20123;-71
2022/05/22 09:47:09;;;;;;;6.88;1.63;;;;;;;23.12;38.69;101248.59;5095029;27;20488;-71
2022/05/22 09:49:52;;;;;;;3.75;0.90;;;;;;;22.70;38.78;101252.66;5091417;28;20032;-71
2022/05/22 09:52:24;;;;;;;5.25;1.17;;;;;;;22.96;40.90;101245.69;5091957;28;20066;-71
2022/05/22 09:55:11;;;;;;;8.93;1.23;;;;;;;22.89;41.07;101249.09;5091726;28;20044;-71
2022/05/22 09:57:52;;;;;;;4.20;1.10;;;;;;;22.81;40.61;101247.13;5096683;28;20468;-71
2022/05/22 10:00:25;;;;;;;5.32;1.30;;;;;;;23.63;45.23;101241.84;5111005;28;20036;-71
2022/05/22 10:03:04;;;;;;;4.28;1.40;;;;;;;24.56;43.39;101242.19;5106592;27;20100;-71
2022/05/22 10:05:41;;;;;;;5.75;1.38;;;;;;;24.48;39.11;101243.97;5111956;27;20093;-71
2022/05/22 10:08:18;;;;;;;2.78;1.08;;;;;;;24.02;36.77;101245.09;5110808;27;20035;-71
2022/05/22 10:10:55;;;;;;;4.25;1.10;;;;;;;23.50;37.98;101252.91;5110733;27;20039;-72
2022/05/22 10:13:30;;;;;;;3.70;1.40;;;;;;;23.27;39.12;101254.28;5107936;27;20109;-73
2022/05/22 10:16:11;;;;;;;3.45;1.20;;;;;;;23.53;39.83;101254.44;5091801;28;20046;-70
2022/05/22 10:18:51;;;;;;;7.80;1.17;;;;;;;24.12;40.52;101241.31;5091116;28;20035;-70
2022/05/22 10:21:24;;;;;;;4.45;1.25;;;;;;;23.90;39.81;101241.78;5110198;27;20044;-69
2022/05/22 10:24:17;;;;;;;3.90;1.15;;;;;;;24.56;38.60;101249.38;5111846;28;20043;-70
2022/05/22 10:27:00;;;;;;;4.25;1.27;;;;;;;25.06;36.93;101241.47;5108344;27;20124;-71
2022/05/22 10:29:33;;;;;;;6.30;1.20;;;;;;;24.75;39.02;101243.81;5107965;27;20047;-70
2022/05/22 10:32:06;;;;;;;5.63;1.60;;;;;;;24.37;36.65;101234.34;5111497;27;20092;-70
2022/05/22 10:34:41;;;;;;;8.85;1.35;;;;;;;23.96;37.79;101227.78;5107511;27;20067;-69
2022/05/22 10:37:25;;;;;;;3.28;1.05;;;;;;;23.99;37.96;101227.47;5090901;28;20084;-69
2022/05/22 10:39:52;;;;;;;4.85;1.17;;;;;;;24.56;39.19;101236.00;5090388;28;20044;-69
2022/05/22 10:45:17;;;;;;;2.50;0.98;;;;;;;25.17;37.44;101225.09;5105288;27;20050;-69
2022/05/22 10:47:44;;;;;;;4.70;1.35;;;;;;;25.81;36.07;101220.94;5111009;27;20039;-69
2022/05/22 10:50:21;;;;;;;3.17;0.90;;;;;;;25.15;35.72;101219.91;5110260;28;20048;-68
2022/05/22 10:52:48;;;;;;;3.78;0.90;;;;;;;24.39;35.58;101229.66;5110944;27;20495;-68
2022/05/22 10:55:22;;;;;;;6.97;1.35;;;;;;;24.10;34.18;101224.53;5110498;28;20100;-67
2022/05/22 10:57:56;;;;;;;4.80;1.00;;;;;;;24.57;33.28;101221.59;5090306;28;20052;-67
2022/05/22 11:00:24;;;;;;;3.63;1.30;;;;;;;24.48;36.21;101223.38;5100910;28;20048;-68
2022/05/22 11:02:52;;;;;;;4.28;1.20;;;;;;;24.34;38.23;101220.41;5102898;27;20043;-68
2022/05/22 11:05:22;;;;;;;4.55;1.00;;;;;;;24.80;37.15;101217.34;5110531;27;20089;-68
2022/05/22 11:07:51;;;;;;;4.78;1.20;;;;;;;24.05;35.96;101217.97;5110459;27;20044;-69
2022/05/22 11:10:24;;;;;;;4.32;1.55;;;;;;;23.91;38.70;101207.81;5109642;27;20051;-69
2022/05/22 11:13:03;;;;;;;4.40;1.15;;;;;;;24.15;41.10;101214.25;5110210;27;20070;-68
2022/05/22 11:15:31;;;;;;;2.45;0.93;;;;;;;24.44;35.50;101207.75;5110812;27;20126;-68
2022/05/22 11:18:09;;;;;;;6.55;1.27;;;;;;;24.98;40.68;101207.41;5110679;28;20048;-68
2022/05/22 11:20:38;;;;;;;2.90;1.20;;;;;;;25.53;38.17;101193.56;5109904;27;20043;-68
2022/05/22 11:23:17;;;;;;;3.58;1.00;;;;;;;26.37;35.28;101195.94;5110731;27;20573;-68
2022/05/22 11:25:52;;;;;;;4.93;1.25;;;;;;;26.65;32.70;101199.91;5109552;28;20101;-68
2022/05/22 11:28:37;;;;;;;2.92;1.33;;;;;;;26.48;34.50;101193.75;5109932;28;20062;-68
2022/05/22 11:31:22;;;;;;;4.88;1.40;;;;;;;25.70;35.09;101197.09;5103720;27;20399;-68
2022/05/22 11:34:04;;;;;;;5.03;1.08;;;;;;;24.82;34.82;101206.47;5106066;27;20654;-69
2022/05/22 11:36:42;;;;;;;2.55;1.00;;;;;;;24.10;35.04;101200.44;5090143;28;20065;-68
2022/05/22 11:39:28;;;;;;;4.18;1.02;;;;;;;23.67;36.19;101189.69;5090161;27;20071;-68
2022/05/22 11:41:59;;;;;;;4.18;1.20;;;;;;;23.40;37.07;101190.53;5110258;27;20388;-68
2022/05/22 11:44:49;;;;;;;4.70;1.33;;;;;;;24.23;37.90;101182.16;5110109;27;20487;-68
2022/05/22 11:47:40;;;;;;;2.70;1.10;;;;;;;24.61;38.46;101180.88;5109996;27;20039;-68
2022/05/22 11:50:21;;;;;;;4.53;1.20;;;;;;;25.32;35.25;101172.47;5109208;27;20039;-68
2022/05/22 11:52:58;;;;;;;3.58;1.08;;;;;;;25.74;36.11;101177.78;5109386;27;20069;-68